Terminal Aerodrome Forecast
Issued by NWS

Home | Current Version | Previous Version | Text Only | Print | Product List | Glossary On
Versions: 1 2 3 4 5 6 7 8 9 10 11 12 13 14 15 16 17
369
FTUS44 KLIX 242324
TAFMSY
TAF
KMSY 242324Z 2500/2606 32010G15KT P6SM FEW060
     FM250600 36004KT P6SM SKC
     FM260000 30005KT P6SM FEW200=

USA.gov is the U.S. government's official web portal to all federal, state and local government web resources and services.